Ferrigno Boy — WCY2558 — position and weather

sailwx.info

Track history (hours):
 
Tides and Currents Weather Stations Pressure Air Temp Water Temp Dewpoint Dewpoint Depression Visibility Wind Speed Wind Dir Waves Ship Positions

Ferrigno Boy

Owner: FERRIGNO, CIRO, SAN PEDRO, CA. More information available from US FCC via Universal Licensing System and Coast Guard Vessel Documentation Center.

Last reported at 2017-Oct-20 01:00 UTC. Time now 2017-Oct-20 03:03 UTC.
Position N 33°44' W 118°16'.

Type: Fishing. MMSI: 367578550.

Date/timePositionNaut miles runAvg speedWind from/ knotsBaromVisibWave heightAir tempDewpointWater temp
2017-Oct-20 01:00N 33°44' W 118°16'0 0.0
2017-Oct-19 23:36N 33°44' W 118°16'0 0.0
2017-Oct-19 23:23N 33°44' W 118°16'0 0.0
2017-Oct-19 22:57N 33°44' W 118°16'0 0.0
2017-Oct-19 21:33N 33°44' W 118°16'0 0.2
2017-Oct-19 21:29N 33°44' W 118°16'0 0.0
2017-Oct-19 20:59N 33°44' W 118°16'0 0.0
2017-Oct-19 20:30N 33°44' W 118°16'0 0.0
2017-Oct-19 19:57N 33°44' W 118°16'1 0.9
2017-Oct-19 18:53N 33°43' W 118°16'1 2.3
2017-Oct-19 18:27N 33°44' W 118°16'0 0.0
2017-Oct-19 18:00N 33°44' W 118°16'0 0.0
2017-Oct-18 23:30N 33°44' W 118°16'0 0.0
2017-Oct-18 22:17N 33°44' W 118°16'0 0.0
2017-Oct-18 21:56N 33°44' W 118°16'0 0.0
2017-Oct-18 21:21N 33°44' W 118°16'0 0.0
2017-Oct-18 21:00N 33°44' W 118°16'0 0.0
2017-Oct-18 20:30N 33°44' W 118°16'0 0.0
2017-Oct-18 19:25N 33°44' W 118°16'0 0.1
2017-Oct-18 18:52N 33°44' W 118°16'59 8.6
2017-Oct-18 12:00N 34°02' W 119°24'7 9.8
2017-Oct-18 11:16N 34°04' W 119°32'310.1
2017-Oct-18 11:00N 34°04' W 119°36'4 6.0
2017-Oct-18 10:22N 34°01' W 119°39'0 0.0
2017-Oct-18 10:00N 34°01' W 119°39'1 2.4
2017-Oct-18 09:30N 34°02' W 119°38'4 7.1
2017-Oct-18 09:00N 34°04' W 119°34'5 2.3
2017-Oct-18 06:49N 33°59' W 119°32'0 0.0
2017-Oct-18 05:30N 33°59' W 119°32'2 0.4
2017-Oct-17 23:21N 34°01' W 119°32'1 0.7
2017-Oct-17 21:22N 34°01' W 119°31'4 7.4
2017-Oct-17 20:48N 34°03' W 119°26'2 7.3
2017-Oct-17 20:30N 34°03' W 119°23'5 7.9
2017-Oct-17 19:53N 34°06' W 119°18'3 8.2
2017-Oct-17 19:29N 34°08' W 119°15'2 5.0
2017-Oct-17 19:01N 34°09' W 119°12'0 0.0
2017-Oct-17 18:30N 34°09' W 119°12'0 0.0
2017-Oct-17 17:57N 34°09' W 119°12'13 4.6
2017-Oct-17 15:08N 34°12' W 119°28'1 8.4
2017-Oct-17 15:00N 34°12' W 119°29'6 8.5
2017-Oct-17 14:17N 34°13' W 119°36'4 8.5
2017-Oct-17 13:50N 34°15' W 119°40'5 8.8
2017-Oct-17 13:18N 34°16' W 119°46'3 8.6
2017-Oct-17 13:00N 34°16' W 119°49'4 8.3
2017-Oct-17 12:30N 34°17' W 119°54'4 8.3
2017-Oct-17 12:00N 34°18' W 119°59'5 8.6
2017-Oct-17 11:27N 34°19' W 120°04'4 8.7
2017-Oct-17 10:59N 34°21' W 120°09'4 8.6
2017-Oct-17 10:30N 34°22' W 120°14'5 8.7
2017-Oct-17 09:57N 34°24' W 120°19'4 8.6
2017-Oct-17 09:30N 34°25' W 120°24'4 8.8
2017-Oct-17 09:00N 34°26' W 120°29'1 0.4
2017-Oct-17 05:28N 34°28' W 120°30'4 8.5
2017-Oct-17 05:00N 34°26' W 120°25'3 5.4
2017-Oct-17 04:30N 34°26' W 120°22'1 1.9
2017-Oct-17 04:00N 34°26' W 120°21'1 0.7
2017-Oct-17 03:15N 34°26' W 120°21'0 0.1
2017-Oct-17 03:00N 34°26' W 120°21'0 0.1
2017-Oct-17 02:28N 34°26' W 120°21'0 0.1
2017-Oct-17 02:00N 34°26' W 120°21'0 0.6
2017-Oct-17 01:29N 34°27' W 120°21'1 2.4
2017-Oct-17 01:00N 34°26' W 120°22'1 1.9
2017-Oct-17 00:29N 34°26' W 120°21'0 0.0
2017-Oct-16 23:54N 34°26' W 120°21'0 0.0
2017-Oct-16 23:29N 34°26' W 120°21'0 0.0
2017-Oct-16 22:58N 34°26' W 120°21'0 0.0
2017-Oct-16 22:30N 34°26' W 120°21'0 0.0
2017-Oct-16 21:59N 34°26' W 120°21'0 0.0
2017-Oct-16 21:28N 34°26' W 120°21'0 0.0
2017-Oct-16 21:00N 34°26' W 120°21'0 0.0
2017-Oct-16 20:30N 34°26' W 120°21'0 0.0
2017-Oct-16 19:59N 34°26' W 120°21'0 0.0
2017-Oct-16 19:27N 34°26' W 120°21'0 0.0
2017-Oct-16 19:00N 34°26' W 120°21'0 0.0
2017-Oct-16 18:30N 34°26' W 120°21'0 0.1
2017-Oct-16 17:59N 34°26' W 120°21'0 0.0
2017-Oct-16 17:13N 34°26' W 120°21'0 0.0
2017-Oct-16 16:44N 34°26' W 120°21'0 0.2
2017-Oct-16 16:29N 34°26' W 120°21'0 0.1
2017-Oct-16 15:58N 34°26' W 120°21'0 0.0
2017-Oct-16 15:28N 34°26' W 120°21'0 0.0
2017-Oct-16 14:58N 34°26' W 120°21'0 0.0
2017-Oct-16 13:56N 34°26' W 120°21'0 0.0
2017-Oct-16 13:30N 34°26' W 120°21'0 0.7
2017-Oct-16 12:59N 34°26' W 120°21'0 0.5
2017-Oct-16 12:28N 34°26' W 120°21'1 0.9
2017-Oct-16 11:49N 34°26' W 120°21'0 0.0
2017-Oct-16 11:30N 34°26' W 120°21'0 0.0
2017-Oct-16 11:00N 34°26' W 120°21'0 0.0
2017-Oct-16 10:30N 34°26' W 120°21'0 0.0
2017-Oct-16 09:54N 34°26' W 120°21'0 0.0
2017-Oct-16 08:44N 34°26' W 120°21'0 0.0
2017-Oct-16 08:17N 34°26' W 120°21'0 0.0
2017-Oct-16 07:59N 34°26' W 120°21'0 0.0
2017-Oct-16 07:18N 34°26' W 120°21'0 0.2
2017-Oct-16 06:59N 34°26' W 120°21'0 0.4
2017-Oct-16 06:30N 34°26' W 120°21'0 0.1
2017-Oct-16 06:00N 34°26' W 120°21'0 0.0
2017-Oct-16 05:29N 34°26' W 120°21'0 0.1
2017-Oct-16 05:00N 34°26' W 120°21'0 0.3
2017-Oct-16 04:30N 34°26' W 120°21'0 0.3
2017-Oct-16 04:00N 34°26' W 120°21'0 0.0
2017-Oct-16 03:23N 34°26' W 120°21'0 0.1
2017-Oct-16 02:58N 34°26' W 120°21'0 0.1
2017-Oct-16 02:30N 34°26' W 120°21'0 0.0
2017-Oct-16 02:00N 34°26' W 120°21'1 1.5
2017-Oct-16 01:30N 34°27' W 120°20'5 9.1
2017-Oct-16 01:00N 34°25' W 120°15'5 9.3
2017-Oct-16 00:30N 34°24' W 120°10'5 9.2
2017-Oct-16 00:00N 34°23' W 120°04'5 9.4
2017-Oct-15 23:26N 34°22' W 119°58'4 9.5
2017-Oct-15 23:00N 34°21' W 119°53'5 9.5
2017-Oct-15 22:29N 34°20' W 119°47'5 9.3
2017-Oct-15 21:59N 34°19' W 119°42'5 9.2
2017-Oct-15 21:26N 34°18' W 119°36'17 0.3
2017-Oct-13 18:49N 34°14' W 119°16'0 0.2
2017-Oct-13 18:24N 34°14' W 119°16'0 0.0
2017-Oct-13 17:22N 34°14' W 119°16'0 0.0
2017-Oct-13 16:57N 34°14' W 119°16'0 0.0
2017-Oct-13 16:29N 34°14' W 119°16'0 0.0
2017-Oct-13 15:57N 34°14' W 119°16'0 0.1
2017-Oct-13 15:06N 34°14' W 119°16'0 0.6
2017-Oct-13 15:00N 34°14' W 119°16'1 2.4
2017-Oct-13 14:30N 34°14' W 119°17'4 9.1
2017-Oct-13 14:00N 34°10' W 119°15'2 3.7
2017-Oct-13 13:22N 34°09' W 119°13'0 0.0
2017-Oct-13 12:56N 34°09' W 119°13'35 1.1
2017-Oct-12 04:54N 33°58' W 119°53'5 8.5
2017-Oct-12 04:22N 33°60' W 119°58'3 7.2
2017-Oct-12 03:59N 34°01' W 120°01'2 3.7
2017-Oct-12 03:30N 33°60' W 119°59'2 3.0
2017-Oct-12 03:00N 33°59' W 119°58'2 2.6
2017-Oct-12 02:25N 33°58' W 119°57'0 0.0
2017-Oct-12 01:55N 33°58' W 119°57'0 0.0
2017-Oct-12 01:30N 33°58' W 119°57'0 0.6
2017-Oct-12 00:57N 33°57' W 119°57'3 6.8
2017-Oct-12 00:30N 33°56' W 119°54'20 8.4
2017-Oct-11 22:10N 34°00' W 119°30'2 8.4
2017-Oct-11 21:59N 34°01' W 119°29'4 8.0
2017-Oct-11 21:30N 34°04' W 119°26'4 8.2
2017-Oct-11 21:00N 34°08' W 119°23'4 8.3
2017-Oct-11 20:30N 34°11' W 119°20'4 8.3
2017-Oct-11 20:00N 34°14' W 119°17'1 0.7
2017-Oct-11 18:38N 34°14' W 119°16'0 0.0
2017-Oct-11 17:49N 34°14' W 119°16'0 0.0
2017-Oct-11 17:15N 34°14' W 119°16'1 2.1
2017-Oct-11 16:54N 34°14' W 119°17'38 2.2
2017-Oct-10 23:20N 33°60' W 119°59'0 0.0
2017-Oct-10 22:58N 33°60' W 119°59'0 0.0
2017-Oct-10 22:19N 33°60' W 119°59'0 0.1
2017-Oct-10 21:57N 33°60' W 119°60'0 0.1
2017-Oct-10 21:23N 33°60' W 119°59'3 6.1
2017-Oct-10 20:58N 33°58' W 119°57'3 5.5
2017-Oct-10 20:30N 33°57' W 119°54'20 8.1
2017-Oct-10 18:00N 33°60' W 119°30'5 7.9
2017-Oct-10 17:23N 34°02' W 119°25'3 8.2
2017-Oct-10 17:00N 34°04' W 119°22'4 8.0
2017-Oct-10 16:30N 34°06' W 119°18'4 8.4
2017-Oct-10 16:00N 34°08' W 119°13'1 1.2
2017-Oct-10 15:20N 34°09' W 119°13'0 0.0
2017-Oct-10 14:59N 34°09' W 119°13'1 0.9
2017-Oct-10 14:00N 34°08' W 119°13'4 8.9
2017-Oct-10 13:30N 34°05' W 119°17'15 1.3
2017-Oct-10 02:16N 34°03' W 118°59'1 5.6
2017-Oct-10 02:00N 34°03' W 119°01'5 9.6
2017-Oct-10 01:30N 34°05' W 119°07'  
Track history (hours):
 
Tides and Currents Weather Stations Pressure Air Temp Water Temp Dewpoint Dewpoint Depression Visibility Wind Speed Wind Dir Waves Ship Positions

Ferrigno Boy

Owner: FERRIGNO, CIRO, SAN PEDRO, CA. More information available from US FCC via Universal Licensing System and Coast Guard Vessel Documentation Center.

Last reported at 2017-Oct-20 01:00 UTC. Time now 2017-Oct-20 03:03 UTC.
Position N 33°44' W 118°16'.

Type: Fishing. MMSI: 367578550.

Date/timePositionNaut miles runAvg speedWind from/ knotsBaromVisibWave heightAir tempDewpointWater temp
2017-Oct-20 01:00N 33°44' W 118°16'0 0.0
2017-Oct-19 23:36N 33°44' W 118°16'0 0.0
2017-Oct-19 23:23N 33°44' W 118°16'0 0.0
2017-Oct-19 22:57N 33°44' W 118°16'0 0.0
2017-Oct-19 21:33N 33°44' W 118°16'0 0.2
2017-Oct-19 21:29N 33°44' W 118°16'0 0.0
2017-Oct-19 20:59N 33°44' W 118°16'0 0.0
2017-Oct-19 20:30N 33°44' W 118°16'0 0.0
2017-Oct-19 19:57N 33°44' W 118°16'1 0.9
2017-Oct-19 18:53N 33°43' W 118°16'1 2.3
2017-Oct-19 18:27N 33°44' W 118°16'0 0.0
2017-Oct-19 18:00N 33°44' W 118°16'0 0.0
2017-Oct-18 23:30N 33°44' W 118°16'0 0.0
2017-Oct-18 22:17N 33°44' W 118°16'0 0.0
2017-Oct-18 21:56N 33°44' W 118°16'0 0.0
2017-Oct-18 21:21N 33°44' W 118°16'0 0.0
2017-Oct-18 21:00N 33°44' W 118°16'0 0.0
2017-Oct-18 20:30N 33°44' W 118°16'0 0.0
2017-Oct-18 19:25N 33°44' W 118°16'0 0.1
2017-Oct-18 18:52N 33°44' W 118°16'59 8.6
2017-Oct-18 12:00N 34°02' W 119°24'7 9.8
2017-Oct-18 11:16N 34°04' W 119°32'310.1
2017-Oct-18 11:00N 34°04' W 119°36'4 6.0
2017-Oct-18 10:22N 34°01' W 119°39'0 0.0
2017-Oct-18 10:00N 34°01' W 119°39'1 2.4
2017-Oct-18 09:30N 34°02' W 119°38'4 7.1
2017-Oct-18 09:00N 34°04' W 119°34'5 2.3
2017-Oct-18 06:49N 33°59' W 119°32'0 0.0
2017-Oct-18 05:30N 33°59' W 119°32'2 0.4
2017-Oct-17 23:21N 34°01' W 119°32'1 0.7
2017-Oct-17 21:22N 34°01' W 119°31'4 7.4
2017-Oct-17 20:48N 34°03' W 119°26'2 7.3
2017-Oct-17 20:30N 34°03' W 119°23'5 7.9
2017-Oct-17 19:53N 34°06' W 119°18'3 8.2
2017-Oct-17 19:29N 34°08' W 119°15'2 5.0
2017-Oct-17 19:01N 34°09' W 119°12'0 0.0
2017-Oct-17 18:30N 34°09' W 119°12'0 0.0
2017-Oct-17 17:57N 34°09' W 119°12'13 4.6
2017-Oct-17 15:08N 34°12' W 119°28'1 8.4
2017-Oct-17 15:00N 34°12' W 119°29'6 8.5
2017-Oct-17 14:17N 34°13' W 119°36'4 8.5
2017-Oct-17 13:50N 34°15' W 119°40'5 8.8
2017-Oct-17 13:18N 34°16' W 119°46'3 8.6
2017-Oct-17 13:00N 34°16' W 119°49'4 8.3
2017-Oct-17 12:30N 34°17' W 119°54'4 8.3
2017-Oct-17 12:00N 34°18' W 119°59'5 8.6
2017-Oct-17 11:27N 34°19' W 120°04'4 8.7
2017-Oct-17 10:59N 34°21' W 120°09'4 8.6
2017-Oct-17 10:30N 34°22' W 120°14'5 8.7
2017-Oct-17 09:57N 34°24' W 120°19'4 8.6
2017-Oct-17 09:30N 34°25' W 120°24'4 8.8
2017-Oct-17 09:00N 34°26' W 120°29'1 0.4
2017-Oct-17 05:28N 34°28' W 120°30'4 8.5
2017-Oct-17 05:00N 34°26' W 120°25'3 5.4
2017-Oct-17 04:30N 34°26' W 120°22'1 1.9
2017-Oct-17 04:00N 34°26' W 120°21'1 0.7
2017-Oct-17 03:15N 34°26' W 120°21'0 0.1
2017-Oct-17 03:00N 34°26' W 120°21'0 0.1
2017-Oct-17 02:28N 34°26' W 120°21'0 0.1
2017-Oct-17 02:00N 34°26' W 120°21'0 0.6
2017-Oct-17 01:29N 34°27' W 120°21'1 2.4
2017-Oct-17 01:00N 34°26' W 120°22'1 1.9
2017-Oct-17 00:29N 34°26' W 120°21'0 0.0
2017-Oct-16 23:54N 34°26' W 120°21'0 0.0
2017-Oct-16 23:29N 34°26' W 120°21'0 0.0
2017-Oct-16 22:58N 34°26' W 120°21'0 0.0
2017-Oct-16 22:30N 34°26' W 120°21'0 0.0
2017-Oct-16 21:59N 34°26' W 120°21'0 0.0
2017-Oct-16 21:28N 34°26' W 120°21'0 0.0
2017-Oct-16 21:00N 34°26' W 120°21'0 0.0
2017-Oct-16 20:30N 34°26' W 120°21'0 0.0
2017-Oct-16 19:59N 34°26' W 120°21'0 0.0
2017-Oct-16 19:27N 34°26' W 120°21'0 0.0
2017-Oct-16 19:00N 34°26' W 120°21'0 0.0
2017-Oct-16 18:30N 34°26' W 120°21'0 0.1
2017-Oct-16 17:59N 34°26' W 120°21'0 0.0
2017-Oct-16 17:13N 34°26' W 120°21'0 0.0
2017-Oct-16 16:44N 34°26' W 120°21'0 0.2
2017-Oct-16 16:29N 34°26' W 120°21'0 0.1
2017-Oct-16 15:58N 34°26' W 120°21'0 0.0
2017-Oct-16 15:28N 34°26' W 120°21'0 0.0
2017-Oct-16 14:58N 34°26' W 120°21'0 0.0
2017-Oct-16 13:56N 34°26' W 120°21'0 0.0
2017-Oct-16 13:30N 34°26' W 120°21'0 0.7
2017-Oct-16 12:59N 34°26' W 120°21'0 0.5
2017-Oct-16 12:28N 34°26' W 120°21'1 0.9
2017-Oct-16 11:49N 34°26' W 120°21'0 0.0
2017-Oct-16 11:30N 34°26' W 120°21'0 0.0
2017-Oct-16 11:00N 34°26' W 120°21'0 0.0
2017-Oct-16 10:30N 34°26' W 120°21'0 0.0
2017-Oct-16 09:54N 34°26' W 120°21'0 0.0
2017-Oct-16 08:44N 34°26' W 120°21'0 0.0
2017-Oct-16 08:17N 34°26' W 120°21'0 0.0
2017-Oct-16 07:59N 34°26' W 120°21'0 0.0
2017-Oct-16 07:18N 34°26' W 120°21'0 0.2
2017-Oct-16 06:59N 34°26' W 120°21'0 0.4
2017-Oct-16 06:30N 34°26' W 120°21'0 0.1
2017-Oct-16 06:00N 34°26' W 120°21'0 0.0
2017-Oct-16 05:29N 34°26' W 120°21'0 0.1
2017-Oct-16 05:00N 34°26' W 120°21'0 0.3
2017-Oct-16 04:30N 34°26' W 120°21'0 0.3
2017-Oct-16 04:00N 34°26' W 120°21'0 0.0
2017-Oct-16 03:23N 34°26' W 120°21'0 0.1
2017-Oct-16 02:58N 34°26' W 120°21'0 0.1
2017-Oct-16 02:30N 34°26' W 120°21'0 0.0
2017-Oct-16 02:00N 34°26' W 120°21'1 1.5
2017-Oct-16 01:30N 34°27' W 120°20'5 9.1
2017-Oct-16 01:00N 34°25' W 120°15'5 9.3
2017-Oct-16 00:30N 34°24' W 120°10'5 9.2
2017-Oct-16 00:00N 34°23' W 120°04'5 9.4
2017-Oct-15 23:26N 34°22' W 119°58'4 9.5
2017-Oct-15 23:00N 34°21' W 119°53'5 9.5
2017-Oct-15 22:29N 34°20' W 119°47'5 9.3
2017-Oct-15 21:59N 34°19' W 119°42'5 9.2
2017-Oct-15 21:26N 34°18' W 119°36'17 0.3
2017-Oct-13 18:49N 34°14' W 119°16'0 0.2
2017-Oct-13 18:24N 34°14' W 119°16'0 0.0
2017-Oct-13 17:22N 34°14' W 119°16'0 0.0
2017-Oct-13 16:57N 34°14' W 119°16'0 0.0
2017-Oct-13 16:29N 34°14' W 119°16'0 0.0
2017-Oct-13 15:57N 34°14' W 119°16'0 0.1
2017-Oct-13 15:06N 34°14' W 119°16'0 0.6
2017-Oct-13 15:00N 34°14' W 119°16'1 2.4
2017-Oct-13 14:30N 34°14' W 119°17'4 9.1
2017-Oct-13 14:00N 34°10' W 119°15'2 3.7
2017-Oct-13 13:22N 34°09' W 119°13'0 0.0
2017-Oct-13 12:56N 34°09' W 119°13'35 1.1
2017-Oct-12 04:54N 33°58' W 119°53'5 8.5
2017-Oct-12 04:22N 33°60' W 119°58'3 7.2
2017-Oct-12 03:59N 34°01' W 120°01'2 3.7
2017-Oct-12 03:30N 33°60' W 119°59'2 3.0
2017-Oct-12 03:00N 33°59' W 119°58'2 2.6
2017-Oct-12 02:25N 33°58' W 119°57'0 0.0
2017-Oct-12 01:55N 33°58' W 119°57'0 0.0
2017-Oct-12 01:30N 33°58' W 119°57'0 0.6
2017-Oct-12 00:57N 33°57' W 119°57'3 6.8
2017-Oct-12 00:30N 33°56' W 119°54'20 8.4
2017-Oct-11 22:10N 34°00' W 119°30'2 8.4
2017-Oct-11 21:59N 34°01' W 119°29'4 8.0
2017-Oct-11 21:30N 34°04' W 119°26'4 8.2
2017-Oct-11 21:00N 34°08' W 119°23'4 8.3
2017-Oct-11 20:30N 34°11' W 119°20'4 8.3
2017-Oct-11 20:00N 34°14' W 119°17'1 0.7
2017-Oct-11 18:38N 34°14' W 119°16'0 0.0
2017-Oct-11 17:49N 34°14' W 119°16'0 0.0
2017-Oct-11 17:15N 34°14' W 119°16'1 2.1
2017-Oct-11 16:54N 34°14' W 119°17'38 2.2
2017-Oct-10 23:20N 33°60' W 119°59'0 0.0
2017-Oct-10 22:58N 33°60' W 119°59'0 0.0
2017-Oct-10 22:19N 33°60' W 119°59'0 0.1
2017-Oct-10 21:57N 33°60' W 119°60'0 0.1
2017-Oct-10 21:23N 33°60' W 119°59'3 6.1
2017-Oct-10 20:58N 33°58' W 119°57'3 5.5
2017-Oct-10 20:30N 33°57' W 119°54'20 8.1
2017-Oct-10 18:00N 33°60' W 119°30'5 7.9
2017-Oct-10 17:23N 34°02' W 119°25'3 8.2
2017-Oct-10 17:00N 34°04' W 119°22'4 8.0
2017-Oct-10 16:30N 34°06' W 119°18'4 8.4
2017-Oct-10 16:00N 34°08' W 119°13'1 1.2
2017-Oct-10 15:20N 34°09' W 119°13'0 0.0
2017-Oct-10 14:59N 34°09' W 119°13'1 0.9
2017-Oct-10 14:00N 34°08' W 119°13'4 8.9
2017-Oct-10 13:30N 34°05' W 119°17'15 1.3
2017-Oct-10 02:16N 34°03' W 118°59'1 5.6
2017-Oct-10 02:00N 34°03' W 119°01'5 9.6
2017-Oct-10 01:30N 34°05' W 119°07'  

Dump ship's entire track history